Stations météo

réclame
Mon MeteoGroup
Kristianstad, Suède (2651): Température de l'air & dewpoint: 18.01.2020 16:00:00 - 24.01.2020 16:00:00 (CET)Kristianstad, Suède (2651): Vitesse du vent: 18.01.2020 16:00:00 - 24.01.2020 16:00:00 (CET)Kristianstad, Suède (2651): Direction du vent: 18.01.2020 16:00:00 - 24.01.2020 16:00:00 (CET)Kristianstad, Suède (2651): visibility: 18.01.2020 16:00:00 - 24.01.2020 16:00:00 (CET)
Date & Time tt [°C] td [°C] ff [km/h] ff [knt] dd vv [km]
24.01.2020 16:00:00 7,0 5,0 18 10 W 10
24.01.2020 15:00:00 7,0 5,0 16 9 W 10
24.01.2020 14:00:00 7,0 5,0 18 10 W 10
24.01.2020 13:00:00 7,0 6,0 21 11 W 10
24.01.2020 12:00:00 7,0 5,0 22 12 W 10
24.01.2020 11:00:00 7,0 5,0 18 10 W 10
24.01.2020 10:00:00 6,0 5,0 16 9 W 10
24.01.2020 09:00:00 7,0 5,0 16 9 W 10
24.01.2020 08:00:00 6,0 5,0 9 5 WSW 3,7
24.01.2020 07:00:00 6,0 5,0 13 7 W 5
24.01.2020 06:00:00 7,0 5,0 18 10 W 10
24.01.2020 05:00:00 6,0 5,0 11 6 W 3,9
24.01.2020 04:00:00 7,0 5,0 13 7 W 10
24.01.2020 03:00:00 6,0 5,0 18 10 W 10
24.01.2020 02:00:00 6,0 5,0 16 9 W 4,8
24.01.2020 01:00:00 6,0 5,0 18 10 W 7
24.01.2020 00:00:00 6,0 5,0 16 9 W 10
23.01.2020 23:00:00 6,0 5,0 21 11 W 10
23.01.2020 22:00:00 6,0 5,0 18 10 W 10
23.01.2020 21:00:00 6,0 5,0 18 10 W 9
23.01.2020 20:00:00 6,0 5,0 15 8 WSW 10
23.01.2020 19:00:00 6,0 5,0 16 9 WSW 4,6
23.01.2020 18:00:00 6,0 5,0 16 9 WSW 10
23.01.2020 17:00:00 6,0 5,0 15 8 WSW 10
23.01.2020 16:00:00 5,0 4,0 16 9 WSW 10
23.01.2020 15:00:00 5,0 4,0 21 11 W 10
23.01.2020 14:00:00 5,0 4,0 24 13 W 10
23.01.2020 13:00:00 5,0 3,0 22 12 W 10
23.01.2020 12:00:00 4,0 3,0 21 11 W 10
23.01.2020 11:00:00 4,0 3,0 21 11 W 10
23.01.2020 10:00:00 3,0 2,0 15 8 W 10
23.01.2020 09:00:00 1,0 1,0 8 4 WSW 10
23.01.2020 08:00:00 1,0 1,0 13 7 W 5
23.01.2020 07:00:00 1,0 1,0 9 5 WNW 9
23.01.2020 06:00:00 -4,0 -5,0 0 0 N 10
23.01.2020 05:00:00 -5,0 -6,0 5 3 WNW 10
23.01.2020 04:00:00 -4,0 -5,0 0 0 N 10
23.01.2020 03:00:00 -4,0 -5,0 0 0 N 10
23.01.2020 02:00:00 -4,0 -5,0 0 0 N 10
23.01.2020 01:00:00 -2,0 -6,0 0 0 N 10
23.01.2020 00:00:00 1,0 -5,0 9 5 WNW 10
22.01.2020 23:00:00 -1,0 -5,0 8 4 W 10
22.01.2020 22:00:00 0,0 -6,0 4 2 - 10
22.01.2020 21:00:00 2,0 -4,0 13 7 W 10
22.01.2020 20:00:00 2,0 -4,0 0 0 N 10
22.01.2020 19:00:00 3,0 -4,0 0 0 N 10
22.01.2020 18:00:00 4,0 -4,0 4 2 NW 10
22.01.2020 17:00:00 5,0 -4,0 13 7 NW 10
22.01.2020 16:00:00 6,0 -3,0 16 9 NW 10
22.01.2020 15:00:00 7,0 -4,0 22 12 NNW 10
22.01.2020 14:00:00 8,0 -3,0 22 12 NNW 10
22.01.2020 13:00:00 8,0 0,0 26 14 NW 10
22.01.2020 12:00:00 7,0 2,0 22 12 NW 10
22.01.2020 11:00:00 7,0 2,0 26 14 NW 10
22.01.2020 10:00:00 5,0 2,0 21 11 W 10
22.01.2020 09:00:00 4,0 2,0 18 10 WNW 10
22.01.2020 08:00:00 5,0 2,0 21 11 WNW 10
22.01.2020 07:00:00 5,0 2,0 21 11 WNW 10
22.01.2020 06:00:00 6,0 2,0 26 14 WNW 10
22.01.2020 05:00:00 6,0 2,0 29 16 WNW 10
22.01.2020 04:00:00 6,0 2,0 26 14 WNW 10
22.01.2020 03:00:00 6,0 2,0 31 17 WNW 10
22.01.2020 02:00:00 6,0 2,0 31 17 WNW 10
22.01.2020 01:00:00 6,0 2,0 39 21 WNW 10
22.01.2020 00:00:00 6,0 2,0 35 19 WNW 10
21.01.2020 23:00:00 7,0 2,0 35 19 WNW 10
21.01.2020 22:00:00 7,0 3,0 31 17 W 10
21.01.2020 21:00:00 7,0 3,0 35 19 WNW 10
21.01.2020 20:00:00 8,0 4,0 28 15 WNW 10
21.01.2020 19:00:00 8,0 5,0 24 13 W 10
21.01.2020 18:00:00 8,0 6,0 22 12 W 10
21.01.2020 17:00:00 7,0 5,0 24 13 W 10
21.01.2020 16:00:00 7,0 6,0 28 15 W 10
21.01.2020 15:00:00 7,0 5,0 26 14 W 10
21.01.2020 14:00:00 7,0 5,0 21 11 W 10
21.01.2020 13:00:00 7,0 5,0 22 12 W 10
21.01.2020 12:00:00 7,0 5,0 26 14 W 10
21.01.2020 11:00:00 7,0 5,0 28 15 W 10
21.01.2020 10:00:00 6,0 4,0 29 16 W 10
21.01.2020 09:00:00 6,0 4,0 28 15 W 10
21.01.2020 08:00:00 6,0 4,0 28 15 W 10
21.01.2020 07:00:00 6,0 4,0 26 14 W 10
21.01.2020 06:00:00 6,0 4,0 24 13 W 10
21.01.2020 05:00:00 6,0 4,0 24 13 W 10
21.01.2020 04:00:00 6,0 4,0 24 13 W 10
21.01.2020 03:00:00 6,0 4,0 24 13 W 10
21.01.2020 02:00:00 6,0 4,0 26 14 W 10
21.01.2020 01:00:00 6,0 4,0 24 13 WSW 10
21.01.2020 00:00:00 6,0 4,0 24 13 W 10
20.01.2020 23:00:00 6,0 4,0 24 13 W 10
20.01.2020 22:00:00 6,0 4,0 21 11 W 10
20.01.2020 21:00:00 7,0 4,0 24 13 W 10
20.01.2020 20:00:00 7,0 4,0 18 10 W 10
20.01.2020 19:00:00 7,0 4,0 18 10 W 10
20.01.2020 18:00:00 7,0 4,0 22 12 W 10
20.01.2020 17:00:00 7,0 4,0 21 11 W 10
20.01.2020 16:00:00 7,0 4,0 18 10 W 10
20.01.2020 15:00:00 6,0 4,0 18 10 W 10
20.01.2020 14:00:00 6,0 4,0 18 10 W 10
20.01.2020 13:00:00 6,0 4,0 21 11 WSW 10
20.01.2020 12:00:00 6,0 4,0 18 10 W 10
20.01.2020 11:00:00 5,0 3,0 18 10 W 10
20.01.2020 10:00:00 5,0 3,0 18 10 W 10
20.01.2020 09:00:00 4,0 3,0 16 9 WSW 10
20.01.2020 08:00:00 4,0 3,0 11 6 W 10
20.01.2020 07:00:00 2,0 2,0 5 3 WSW 10
20.01.2020 06:00:00 2,0 2,0 16 9 W 10
20.01.2020 05:00:00 1,0 1,0 13 7 W 10
20.01.2020 04:00:00 2,0 1,0 9 5 W 10
20.01.2020 03:00:00 2,0 1,0 9 5 W 10
20.01.2020 02:00:00 2,0 1,0 15 8 W 10
20.01.2020 01:00:00 2,0 1,0 11 6 W 10
20.01.2020 00:00:00 2,0 1,0 13 7 W 10
19.01.2020 23:00:00 3,0 1,0 11 6 W 10
19.01.2020 22:00:00 2,0 2,0 13 7 W 10
19.01.2020 21:00:00 3,0 2,0 8 4 WNW 10
19.01.2020 20:00:00 3,0 2,0 13 7 WNW 10
19.01.2020 19:00:00 3,0 2,0 13 7 W 10
19.01.2020 18:00:00 4,0 2,0 9 5 W 10
19.01.2020 17:00:00 4,0 2,0 5 3 WSW 10
19.01.2020 16:00:00 5,0 3,0 8 4 W 10
19.01.2020 15:00:00 7,0 3,0 9 5 W 10
19.01.2020 14:00:00 7,0 3,0 13 7 WNW 10
19.01.2020 13:00:00 7,0 3,0 13 7 WNW 10
19.01.2020 12:00:00 6,0 2,0 15 8 WNW 10
19.01.2020 11:00:00 6,0 3,0 13 7 W 10
19.01.2020 10:00:00 5,0 3,0 11 6 W 10
19.01.2020 09:00:00 5,0 3,0 13 7 W 10
19.01.2020 08:00:00 5,0 3,0 15 8 WNW 10
19.01.2020 07:00:00 5,0 3,0 13 7 W 10
19.01.2020 06:00:00 5,0 3,0 11 6 W 10
19.01.2020 05:00:00 4,0 3,0 11 6 W 10
19.01.2020 04:00:00 4,0 3,0 18 10 W 10
19.01.2020 03:00:00 5,0 3,0 16 9 W 10
19.01.2020 02:00:00 5,0 3,0 21 11 W 10
19.01.2020 01:00:00 6,0 3,0 21 11 W 10
19.01.2020 00:00:00 6,0 3,0 16 9 W 10
18.01.2020 23:00:00 6,0 3,0 21 11 WSW 10
18.01.2020 22:00:00 6,0 4,0 18 10 WSW 10
18.01.2020 21:00:00 6,0 4,0 18 10 WSW 10
18.01.2020 20:00:00 5,0 4,0 21 11 WSW 10
18.01.2020 19:00:00 5,0 4,0 22 12 SW 5
18.01.2020 18:00:00 5,0 4,0 18 10 SW 10
18.01.2020 17:00:00 5,0 3,0 16 9 SW 10
18.01.2020 16:00:00 5,0 3,0 24 13 SW 8

tt = Température de l'air
td = dewpoint
ff = Vitesse du vent
dd = Direction du vent
vv = visibility

stations d'obs. à proximité